• Join FlightAware (Why Join?)
  • Login
  • US Flag 
03:39PM EDT


 

Airport Tracker/Info


-or-


 

Live Flight TrackerFlight Track Log ✈ N317TT ✈ 05-Apr-2013 ✈ KSDF - KRST

Flight Track Log - Related Links

Times and Time Zones

All times are in EDT time to prevent confusion due to time zone crossing. See the N317TT flight status page for this flight to view local times or setup timezone preferences in your user account.

Time Position Orientation Groundspeed Altitude Reporting Facility
EDT Latitude Longitude Course Direction KTS MPH feet Rate Location/Type
06:52PM 38.2064 -85.7369 345° North 193 222 2,200  Level FAA TRACON SMA TRACON (SMA)
06:53PM 38.2269 -85.7439 345° North 198 228 3,300 3,600 Climbing FAA TRACON SMA TRACON (SMA)
06:53PM 38.2458 -85.7494 347° North 218 251 4,600 3,600 Climbing FAA TRACON SMA TRACON (SMA)
06:53PM 38.2667 -85.7550 348° North 241 277 5,700 3,900 Climbing FAA TRACON SMA TRACON (SMA)
06:54PM 38.2883 -85.7631 344° North 261 300 7,200 5,700 Climbing FAA TRACON SMA TRACON (SMA)
06:54PM 38.3144 -85.7747 341° North 260 299 9,500 4,920 Climbing FAA TRACON SMA TRACON (SMA)
06:54PM 38.3353 -85.7836 341° North 255 293 10,500 2,700 Climbing FAA TRACON SMA TRACON (SMA)
06:55PM 38.3575 -85.7939 340° North 270 311 11,300 2,700 Climbing FAA TRACON SMA TRACON (SMA)
06:55PM 38.3869 -85.8125 334° Northwest 303 349 12,300 2,700 Climbing FAA TRACON SMA TRACON (SMA)
06:55PM 38.4119 -85.8278 334° Northwest 319 367 13,100 2,580 Climbing FAA TRACON SMA TRACON (SMA)
06:56PM 38.4367 -85.8431 334° Northwest 324 373 14,000 3,300 Climbing FAA TRACON SMA TRACON (SMA)
06:56PM 38.4664 -85.8672 328° Northwest 329 379 15,300 3,360 Climbing FAA TRACON SMA TRACON (SMA)
06:56PM 38.4881 -85.8914 319° Northwest 333 383 16,300 3,600 Climbing FAA TRACON SMA TRACON (SMA)
06:57PM 38.5144 -85.9211 319° Northwest 333 383 17,700 4,020 Climbing FAA TRACON SMA TRACON (SMA)
06:57PM 38.5350 -85.9458 317° Northwest 330 380 19,000 3,840 Climbing FAA TRACON SMA TRACON (SMA)
06:57PM 38.5558 -85.9686 319° Northwest 323 372 20,200 4,200 Climbing FAA TRACON SMA TRACON (SMA)
06:58PM 38.5814 -85.9964 320° Northwest 315 362 21,800 3,900 Climbing FAA TRACON SMA TRACON (SMA)
06:58PM 38.6008 -86.0181 319° Northwest 306 352 22,900 2,100 Climbing FAA TRACON SMA TRACON (SMA)
06:58PM 38.6217 -86.0406 320° Northwest 311 358 23,200 1,200 Climbing FAA TRACON SMA TRACON (SMA)
06:59PM 38.6492 -86.0700 320° Northwest 333 383 23,700 1,200 Climbing FAA TRACON SMA TRACON (SMA)
06:59PM 38.6722 -86.0947 320° Northwest 348 400 24,000 900 Climbing FAA TRACON SMA TRACON (SMA)
06:59PM 38.6961 -86.1211 319° Northwest 363 418 24,300 1,020 Climbing FAA TRACON SMA TRACON (SMA)
07:00PM 38.7208 -86.1478 320° Northwest 375 432 24,700 1,320 Climbing FAA TRACON SMA TRACON (SMA)
07:00PM 38.7517 -86.1825 319° Northwest 386 444 25,200 1,320 Climbing FAA TRACON SMA TRACON (SMA)
07:00PM 38.7775 -86.2100 320° Northwest 390 449 25,600 1,500 Climbing FAA TRACON SMA TRACON (SMA)
07:01PM 38.8097 -86.2450 320° Northwest 395 455 26,200 1,800 Climbing FAA TRACON SMA TRACON (SMA)
07:01PM 38.8350 -86.2736 319° Northwest 396 456 26,800 1,800 Climbing FAA TRACON SMA TRACON (SMA)
07:01PM 38.8608 -86.3011 320° Northwest 393 452 27,400 2,100 Climbing FAA TRACON SMA TRACON (SMA)
07:02PM 38.8922 -86.3358 319° Northwest 389 448 28,200 2,100 Climbing FAA TRACON SMA TRACON (SMA)
07:02PM 38.9183 -86.3625 322° Northwest 388 447 28,800 1,800 Climbing FAA TRACON SMA TRACON (SMA)
07:02PM 38.9433 -86.3889 321° Northwest 383 441 29,400 1,920 Climbing FAA TRACON SMA TRACON (SMA)
07:03PM 38.9736 -86.4244 318° Northwest 382 440 30,100 2,040 Climbing FAA TRACON SMA TRACON (SMA)
07:03PM 38.9983 -86.4514 320° Northwest 380 437 30,800 2,040 Climbing FAA TRACON SMA TRACON (SMA)
07:04PM 39.0675 -86.5333 317° Northwest 376 433 32,700 1,920 Climbing Indianapolis Center
07:05PM 39.1456 -86.6197 319° Northwest 369 425 34,600 1,740 Climbing Indianapolis Center
07:06PM 39.2222 -86.7050 319° Northwest 363 418 36,400 1,560 Climbing Indianapolis Center
07:07PM 39.2989 -86.7900 319° Northwest 360 414 37,900 1,380 Climbing Indianapolis Center
07:08PM 39.3753 -86.8747 319° Northwest 359 413 39,300 960 Climbing Indianapolis Center
07:09PM 39.4503 -86.9606 319° Northwest 356 410 40,000 300 Climbing Indianapolis Center
07:10PM 39.5289 -87.0500 319° Northwest 368 423 40,000  Level Indianapolis Center
07:11PM 39.6083 -87.1411 319° Northwest 375 432 40,000  Level Indianapolis Center
07:12PM 39.6886 -87.2306 319° Northwest 376 433 40,000  Level Indianapolis Center
07:13PM 39.7817 -87.3375 319° Northwest 377 434 40,000  Level Indianapolis Center
07:14PM 39.8622 -87.4297 319° Northwest 381 438 40,000  Level Indianapolis Center
07:15PM 39.9408 -87.5211 318° Northwest 379 436 40,000  Level Indianapolis Center
07:16PM 40.0214 -87.6136 319° Northwest 380 437 40,000  Level Indianapolis Center
07:18PM 40.1019 -87.7069 318° Northwest 383 441 40,000  Level Indianapolis Center
07:19PM 40.1794 -87.8039 316° Northwest 384 442 40,000  Level Indianapolis Center
07:20PM 40.2614 -87.9000 318° Northwest 383 441 40,000  Level Chicago Center
07:21PM 40.3397 -87.9950 317° Northwest 385 443 40,000  Level Chicago Center
07:22PM 40.4203 -88.0867 319° Northwest 386 444 40,000  Level Chicago Center
07:23PM 40.5142 -88.1958 319° Northwest 377 434 40,000  Level Chicago Center
07:24PM 40.5922 -88.2853 319° Northwest 373 429 40,000  Level Chicago Center
07:25PM 40.6714 -88.3772 319° Northwest 377 434 40,000  Level Chicago Center
07:26PM 40.7506 -88.4675 319° Northwest 377 434 40,000  Level Chicago Center
07:27PM 40.8286 -88.5594 318° Northwest 376 433 40,000  Level Chicago Center
07:28PM 40.9067 -88.6522 318° Northwest 376 433 40,000  Level Chicago Center
07:29PM 40.9983 -88.7636 317° Northwest 376 433 40,000  Level Chicago Center
07:30PM 41.0756 -88.8553 318° Northwest 375 432 40,000  Level Chicago Center
07:31PM 41.1536 -88.9497 318° Northwest 378 435 40,000  Level Chicago Center
07:32PM 41.2306 -89.0428 318° Northwest 375 432 40,000  Level Chicago Center
07:33PM 41.3044 -89.1328 318° Northwest 363 418 40,000  Level Chicago Center
07:34PM 41.3822 -89.2281 317° Northwest 373 429 40,000  Level Chicago Center
07:35PM 41.4567 -89.3208 317° Northwest 367 422 40,000  Level Chicago Center
07:36PM 41.5453 -89.4261 318° Northwest 365 420 40,000  Level Chicago Center
07:37PM 41.6197 -89.5183 317° Northwest 367 422 40,000  Level Chicago Center
07:38PM 41.6950 -89.6128 317° Northwest 365 420 40,000  Level Chicago Center
07:39PM 41.7700 -89.7078 317° Northwest 369 425 40,000  Level Chicago Center
07:40PM 41.8569 -89.8164 317° Northwest 362 417 40,000  Level Chicago Center
07:41PM 41.9339 -89.9128 317° Northwest 368 423 40,000  Level Chicago Center
07:42PM 41.9994 -89.9947 317° Northwest 372 428 40,000  Level Chicago Center
07:43PM 42.0889 -90.1103 316° Northwest 377 434 40,000  Level Chicago Center
07:44PM 42.1639 -90.2044 317° Northwest 374 430 40,000  Level Chicago Center
07:45PM 42.2389 -90.3006 317° Northwest 373 429 40,000 -960 Level Chicago Center
07:46PM 42.3131 -90.3928 317° Northwest 366 421 38,000 -2,280 Descending Chicago Center
07:47PM 42.4008 -90.5028 317° Northwest 359 413 35,300 -2,400 Descending Chicago Center
07:49PM 42.4731 -90.5983 316° Northwest 367 422 33,100 -1,620 Descending Chicago Center
07:50PM 42.5506 -90.6975 317° Northwest 384 442 32,000 -1,440 Descending Chicago Center
07:51PM 42.6261 -90.7936 317° Northwest 378 435 30,200 -1,740 Descending Chicago Center
07:52PM 42.7033 -90.8953 316° Northwest 386 444 28,500 -2,040 Descending Chicago Center
07:53PM 42.7975 -91.0172 316° Northwest 396 456 26,000 -2,160 Descending Chicago Center
07:54PM 42.8789 -91.1244 316° Northwest 413 475 24,100 -1,080 Descending Chicago Center
07:55PM 42.9581 -91.2275 316° Northwest 403 464 23,800 -1,020 Descending Chicago Center
07:56PM 43.0325 -91.3253 316° Northwest 383 441 22,000 -1,920 Descending Chicago Center
07:57PM 43.1022 -91.4178 316° Northwest 366 421 20,200 -1,920 Descending Minneapolis Center
07:58PM 43.1692 -91.5056 316° Northwest 347 399 18,400 -1,800 Descending Minneapolis Center
07:59PM 43.2353 -91.5933 316° Northwest 337 388 16,600 -2,100 Descending Minneapolis Center
08:00PM 43.3131 -91.6975 316° Northwest 329 379 14,200 -1,980 Descending Minneapolis Center
08:01PM 43.3728 -91.7778 316° Northwest 306 352 12,600 -1,740 Descending Minneapolis Center
08:02PM 43.4314 -91.8564 316° Northwest 299 344 10,700 -1,320 Descending Minneapolis Center
08:03PM 43.4967 -91.9428 316° Northwest 303 349 10,000 -360 Descending Minneapolis Center
08:04PM 43.5547 -92.0203 316° Northwest 295 339 10,000 -480 Level Minneapolis Center
08:05PM 43.6047 -92.0975 312° West 252 290 9,100 -1,440 Descending Minneapolis Center
08:06PM 43.6478 -92.1658 311° West 239 275 7,100 -2,280 Descending Minneapolis Center
08:07PM 43.7011 -92.2464 312° West 265 305 4,500 -1,500 Descending Minneapolis Center
08:08PM 43.7461 -92.3250 308° West 258 297 4,000 -300 Descending Minneapolis Center
08:09PM 43.7889 -92.4011 308° West 235 270 4,000  Level Minneapolis Center
08:10PM 43.8250 -92.4786 303° West 252 290 4,000  Level Minneapolis Center
08:11PM 43.8419 -92.5775 283° West 269 310 4,000  Level Minneapolis Center
08:12PM 43.8958 -92.6678 310° West 285 328 4,000  Level Minneapolis Center
08:13PM 43.9478 -92.7458 313° West 278 320 4,000 -540 Level Minneapolis Center
08:14PM 44.0103 -92.7650 348° North 257 296 3,000 -480 Descending Minneapolis Center
08:15PM 44.0267 -92.6992 71° East 176 203 3,100  Climbing Minneapolis Center
08:16PM 44.0117 -92.6544 115° Southeast 131 151 3,000  Descending Minneapolis Center
08:17PM 43.9836 -92.6097 131° Southeast 143 165 3,200 -180 Climbing Minneapolis Center
08:18PM 43.9617 -92.5761 132° Southeast 115 132 2,700 -540 Descending Minneapolis Center
08:19PM 43.9425 -92.5469 132° Southeast 105 121 2,100 -660 Descending Minneapolis Center
08:20PM 43.9194 -92.5131 133° Southeast 110 127 1,400 -420 Descending Minneapolis Center
08:21PM 43.9100 -92.4994 134° Southeast 40 46 1,300 -120 Descending Minneapolis Center